Time;durP1;ratioP1;P1;durP2;ratioP2;P2;SDS_P1;SDS_P2;PMS_P1;PMS_P2;Temp;Humidity;BMP_temperature;BMP_pressure;BME280_temperature;BME280_humidity;BME280_pressure;Samples;Min_cycle;Max_cycle;Signal;HPM_P1;HPM_P2
2024/04/15 00:01:24;;;;;;;5.55;1.00;;;9.00;99.90;;;;;;5390433;26;20012;-71
2024/04/15 00:03:51;;;;;;;5.60;1.02;;;9.00;99.90;;;;;;5403260;26;19995;-69
2024/04/15 00:06:18;;;;;;;4.60;1.70;;;8.90;99.90;;;;;;5397866;26;20032;-68
2024/04/15 00:08:45;;;;;;;5.80;0.90;;;8.90;99.90;;;;;;5399159;26;20083;-68
2024/04/15 00:11:12;;;;;;;4.07;0.90;;;8.90;99.90;;;;;;5393699;26;20000;-68
2024/04/15 00:13:39;;;;;;;5.55;1.25;;;8.90;99.90;;;;;;5400492;26;19995;-69
2024/04/15 00:16:10;;;;;;;6.75;0.90;;;8.90;99.90;;;;;;5384008;26;20087;-68
2024/04/15 00:18:38;;;;;;;2.42;0.88;;;8.90;99.90;;;;;;5377760;26;20027;-69
2024/04/15 00:21:10;;;;;;;5.03;0.90;;;8.90;99.90;;;;;;5396311;26;20008;-68
2024/04/15 00:23:37;;;;;;;8.55;1.27;;;8.80;99.90;;;;;;5410394;26;20004;-68
2024/04/15 00:26:04;;;;;;;5.82;1.60;;;8.80;99.90;;;;;;5387779;26;20458;-68
2024/04/15 00:28:31;;;;;;;3.13;0.90;;;8.80;99.90;;;;;;5394517;26;20009;-69
2024/04/15 00:30:59;;;;;;;6.57;1.17;;;8.80;99.90;;;;;;5382801;26;20023;-67
2024/04/15 00:33:26;;;;;;;12.63;1.42;;;8.80;99.90;;;;;;5395275;26;20011;-68
2024/04/15 00:35:53;;;;;;;3.00;0.95;;;8.80;99.90;;;;;;5397970;26;20008;-67
2024/04/15 00:38:20;;;;;;;2.78;0.90;;;8.80;99.90;;;;;;5401871;26;20078;-68
2024/04/15 00:40:47;;;;;;;6.90;1.38;;;8.80;99.90;;;;;;5397574;26;20004;-69
2024/04/15 00:43:14;;;;;;;6.72;1.15;;;8.80;99.90;;;;;;5399599;26;20011;-69
2024/04/15 00:45:42;;;;;;;4.30;0.85;;;8.80;99.90;;;;;;5392539;26;20080;-68
2024/04/15 00:48:12;;;;;;;6.05;0.93;;;8.70;99.90;;;;;;5396083;26;20012;-68
2024/04/15 00:50:40;;;;;;;5.25;0.93;;;8.80;99.90;;;;;;5390933;26;20022;-68
2024/04/15 00:53:07;;;;;;;5.65;1.52;;;8.80;99.90;;;;;;5413307;26;20015;-68
2024/04/15 00:55:34;;;;;;;3.78;1.15;;;8.80;99.90;;;;;;5411635;26;20212;-67
2024/04/15 00:58:01;;;;;;;6.55;0.90;;;8.70;99.90;;;;;;5395580;26;20076;-68
2024/04/15 01:00:29;;;;;;;6.63;1.20;;;8.80;99.90;;;;;;5392020;26;20023;-67
2024/04/15 01:02:56;;;;;;;3.92;0.70;;;8.70;99.90;;;;;;5393511;26;19996;-66
2024/04/15 01:05:23;;;;;;;3.13;1.05;;;8.70;99.90;;;;;;5383945;26;20023;-67
2024/04/15 01:07:50;;;;;;;6.95;1.30;;;8.70;99.90;;;;;;5397903;26;19996;-68
2024/04/15 01:10:17;;;;;;;7.68;1.10;;;8.70;99.90;;;;;;5395323;26;20015;-69
2024/04/15 01:12:44;;;;;;;6.18;1.08;;;8.70;99.90;;;;;;5390827;26;20463;-69
2024/04/15 01:15:11;;;;;;;7.88;1.92;;;8.60;99.90;;;;;;5370669;26;20004;-69
2024/04/15 01:17:38;;;;;;;4.35;1.08;;;8.60;99.90;;;;;;5382919;26;20005;-68
2024/04/15 01:20:05;;;;;;;4.20;0.88;;;8.60;99.90;;;;;;5391264;26;20080;-70
2024/04/15 01:22:45;;;;;;;8.85;2.15;;;8.60;99.90;;;;;;5382437;26;20000;-69
2024/04/15 01:25:12;;;;;;;3.25;0.85;;;8.60;99.90;;;;;;5375386;26;20085;-69
2024/04/15 01:27:39;;;;;;;7.05;1.38;;;8.60;99.90;;;;;;5400642;26;20008;-69
2024/04/15 01:30:08;;;;;;;2.15;0.90;;;8.60;99.90;;;;;;5381614;26;20355;-70
2024/04/15 01:32:35;;;;;;;12.98;1.35;;;8.60;99.90;;;;;;5397402;26;20070;-69
2024/04/15 01:35:02;;;;;;;8.05;1.50;;;8.60;99.90;;;;;;5398035;26;20018;-69
2024/04/15 01:37:29;;;;;;;7.50;1.63;;;8.60;99.90;;;;;;5399366;26;20011;-69
2024/04/15 01:39:56;;;;;;;5.43;1.92;;;8.50;99.90;;;;;;5399162;26;20015;-68
2024/04/15 01:42:23;;;;;;;4.22;0.90;;;8.60;99.90;;;;;;5398736;26;20041;-68
2024/04/15 01:44:50;;;;;;;3.35;0.98;;;8.50;99.90;;;;;;5391153;26;19999;-68
2024/04/15 01:47:17;;;;;;;7.45;1.75;;;8.50;99.90;;;;;;5389478;26;20051;-67
2024/04/15 01:49:44;;;;;;;12.55;1.10;;;8.50;99.90;;;;;;5406445;26;19999;-68
2024/04/15 01:52:11;;;;;;;3.33;0.85;;;8.50;99.90;;;;;;5404078;26;20079;-68
2024/04/15 01:54:38;;;;;;;11.60;1.38;;;8.50;99.90;;;;;;5390068;26;20004;-68
2024/04/15 01:57:05;;;;;;;4.15;1.02;;;8.50;99.90;;;;;;5384569;26;20004;-68
2024/04/15 01:59:32;;;;;;;7.10;0.85;;;8.50;99.90;;;;;;5388499;26;20120;-67
2024/04/15 02:01:59;;;;;;;10.52;2.80;;;8.50;99.90;;;;;;5403026;26;20075;-68
2024/04/15 02:04:25;;;;;;;3.80;1.02;;;8.50;99.90;;;;;;5398051;26;20014;-68
2024/04/15 02:06:52;;;;;;;3.35;1.25;;;8.50;99.90;;;;;;5401593;26;20080;-68
2024/04/15 02:09:20;;;;;;;4.70;1.13;;;8.50;99.90;;;;;;5397891;26;20019;-69
2024/04/15 02:11:47;;;;;;;9.65;0.80;;;8.50;99.90;;;;;;5407551;26;19996;-67
2024/04/15 02:14:14;;;;;;;5.35;1.33;;;8.40;99.90;;;;;;5398578;26;20085;-68
2024/04/15 02:16:41;;;;;;;5.63;1.08;;;8.40;99.90;;;;;;5403892;26;19995;-67
2024/04/15 02:19:08;;;;;;;8.93;1.15;;;8.50;99.90;;;;;;5381674;26;20470;-67
2024/04/15 02:21:35;;;;;;;8.68;1.85;;;8.40;99.90;;;;;;5378890;26;19995;-67
2024/04/15 02:24:02;;;;;;;3.17;1.27;;;8.40;99.90;;;;;;5382620;26;20081;-67
2024/04/15 02:26:29;;;;;;;10.02;2.42;;;8.40;99.90;;;;;;5398497;26;21544;-67
2024/04/15 02:28:56;;;;;;;3.88;0.70;;;8.40;99.90;;;;;;5400000;26;20000;-67
2024/04/15 02:31:23;;;;;;;10.55;1.52;;;8.40;99.90;;;;;;5399847;26;20074;-68
2024/04/15 02:33:50;;;;;;;8.18;1.13;;;8.40;99.90;;;;;;5404042;26;20008;-69
2024/04/15 02:36:18;;;;;;;5.95;1.40;;;8.30;99.90;;;;;;5381750;26;20036;-67
2024/04/15 02:38:45;;;;;;;8.20;2.08;;;8.30;99.90;;;;;;5400846;26;20582;-67
2024/04/15 02:41:12;;;;;;;9.23;1.65;;;8.20;99.90;;;;;;5395986;26;20081;-68
2024/04/15 02:43:38;;;;;;;8.88;1.05;;;8.20;99.90;;;;;;5376782;26;20023;-68
2024/04/15 02:46:05;;;;;;;7.07;1.05;;;8.20;99.90;;;;;;5399012;26;20008;-68
2024/04/15 02:48:33;;;;;;;6.75;1.27;;;8.10;99.90;;;;;;5388892;26;20018;-68
2024/04/15 02:50:59;;;;;;;6.13;1.00;;;8.10;99.90;;;;;;5389527;26;20473;-68
2024/04/15 02:53:28;;;;;;;7.43;1.25;;;8.00;99.90;;;;;;5381701;26;20420;-68
2024/04/15 02:55:54;;;;;;;11.45;1.33;;;8.00;99.90;;;;;;5387397;26;20001;-68
2024/04/15 02:58:21;;;;;;;4.93;1.10;;;8.00;99.90;;;;;;5407879;26;20544;-70
2024/04/15 03:00:48;;;;;;;9.65;1.45;;;7.90;99.90;;;;;;5395510;26;20096;-68
2024/04/15 03:03:15;;;;;;;9.25;1.65;;;7.90;99.90;;;;;;5383592;26;20015;-68
2024/04/15 03:05:45;;;;;;;5.57;1.27;;;8.00;99.90;;;;;;5392380;26;20003;-68
2024/04/15 03:08:12;;;;;;;9.77;1.42;;;8.00;99.90;;;;;;5398751;26;20000;-68
2024/04/15 03:10:39;;;;;;;5.65;0.93;;;8.00;99.90;;;;;;5398389;26;20015;-69
2024/04/15 03:13:06;;;;;;;8.25;1.30;;;8.10;99.90;;;;;;5401740;26;20054;-68
2024/04/15 03:15:33;;;;;;;6.90;1.13;;;8.10;99.90;;;;;;5398039;26;20015;-69
2024/04/15 03:18:02;;;;;;;12.50;1.35;;;8.10;99.90;;;;;;5393557;26;20464;-69
2024/04/15 03:20:29;;;;;;;3.85;0.95;;;8.10;99.90;;;;;;5396806;26;20092;-69
2024/04/15 03:22:56;;;;;;;4.35;1.23;;;8.10;99.90;;;;;;5382921;26;20008;-68
2024/04/15 03:25:23;;;;;;;5.75;1.25;;;8.20;99.90;;;;;;5393169;26;19999;-68
2024/04/15 03:27:50;;;;;;;8.02;1.38;;;8.30;99.90;;;;;;5401235;26;20080;-69
2024/04/15 03:30:17;;;;;;;3.45;0.80;;;8.30;99.90;;;;;;5403589;26;20017;-68
2024/04/15 03:32:44;;;;;;;5.05;1.00;;;8.30;99.90;;;;;;5391629;26;20004;-67
2024/04/15 03:35:14;;;;;;;5.88;1.23;;;8.30;99.90;;;;;;5396242;26;20004;-69
2024/04/15 03:37:42;;;;;;;8.48;1.63;;;8.30;99.90;;;;;;5399311;26;20462;-67
2024/04/15 03:40:10;;;;;;;9.35;1.48;;;8.20;99.90;;;;;;5378876;26;20485;-68
2024/04/15 03:42:37;;;;;;;5.63;2.05;;;8.20;99.90;;;;;;5387195;26;20078;-69
2024/04/15 03:45:04;;;;;;;5.45;1.20;;;8.20;99.90;;;;;;5385998;26;20019;-68
2024/04/15 03:47:31;;;;;;;10.48;1.27;;;8.20;99.90;;;;;;5391728;26;20080;-69
2024/04/15 03:49:58;;;;;;;5.35;1.30;;;8.20;99.90;;;;;;5406426;26;20250;-68
2024/04/15 03:52:25;;;;;;;9.70;1.10;;;8.30;99.90;;;;;;5389217;26;19997;-69
2024/04/15 03:54:52;;;;;;;8.02;1.30;;;8.40;99.90;;;;;;5394161;26;20004;-68
2024/04/15 03:57:19;;;;;;;7.13;1.20;;;8.30;99.90;;;;;;5391762;26;20018;-69
2024/04/15 03:59:46;;;;;;;7.47;1.55;;;8.30;99.90;;;;;;5409729;26;20017;-68
2024/04/15 04:02:13;;;;;;;13.00;1.33;;;8.30;99.90;;;;;;5384875;26;20004;-68
2024/04/15 04:04:40;;;;;;;11.43;1.70;;;8.30;99.90;;;;;;5385934;26;20004;-68
2024/04/15 04:07:07;;;;;;;16.98;1.85;;;8.30;99.90;;;;;;5400462;26;20040;-67
2024/04/15 04:09:34;;;;;;;12.02;1.73;;;8.20;99.90;;;;;;5390500;26;19999;-68
2024/04/15 04:12:01;;;;;;;5.93;1.13;;;8.20;99.90;;;;;;5382955;26;20517;-70
2024/04/15 04:14:28;;;;;;;15.23;1.70;;;8.20;99.90;;;;;;5376219;26;20316;-67
2024/04/15 04:16:55;;;;;;;7.63;1.35;;;8.20;99.90;;;;;;5380701;26;20011;-67
2024/04/15 04:19:22;;;;;;;5.75;1.55;;;8.30;99.90;;;;;;5380656;26;20000;-69
2024/04/15 04:21:49;;;;;;;6.72;1.13;;;8.30;99.90;;;;;;5377043;26;20019;-69
2024/04/15 04:24:17;;;;;;;8.05;1.35;;;8.30;99.90;;;;;;5398513;26;20004;-69
2024/04/15 04:26:44;;;;;;;7.80;1.30;;;8.30;99.90;;;;;;5397721;26;20046;-70
2024/04/15 04:29:11;;;;;;;7.43;1.08;;;8.30;99.90;;;;;;5380957;26;20018;-69
2024/04/15 04:31:38;;;;;;;6.28;1.17;;;8.30;99.90;;;;;;5386514;26;19999;-70
2024/04/15 04:34:05;;;;;;;8.65;1.42;;;8.30;99.90;;;;;;5400929;26;20104;-69
2024/04/15 04:36:32;;;;;;;13.15;1.80;;;8.40;99.90;;;;;;5398856;26;20053;-69
2024/04/15 04:38:58;;;;;;;8.90;1.23;;;8.40;99.90;;;;;;5384714;26;20001;-69
2024/04/15 04:41:25;;;;;;;11.32;1.55;;;8.40;99.90;;;;;;5392673;26;20004;-68
2024/04/15 04:43:53;;;;;;;17.60;1.63;;;8.40;99.90;;;;;;5387093;26;19999;-68
2024/04/15 04:46:20;;;;;;;7.88;1.35;;;8.40;99.90;;;;;;5397008;26;20396;-68
2024/04/15 04:48:47;;;;;;;6.63;2.20;;;8.40;99.90;;;;;;5398972;26;20015;-67
2024/04/15 04:51:14;;;;;;;12.50;2.35;;;8.40;99.90;;;;;;5404957;26;20136;-69
2024/04/15 04:53:41;;;;;;;8.70;1.85;;;8.50;99.90;;;;;;5401275;26;20024;-68
2024/04/15 04:56:12;;;;;;;10.48;1.30;;;8.50;99.90;;;;;;5406387;26;20023;-68
2024/04/15 04:58:40;;;;;;;12.73;1.92;;;8.60;99.90;;;;;;5397551;26;20521;-68
2024/04/15 05:01:13;;;;;;;10.40;1.40;;;8.60;99.90;;;;;;5392182;26;20000;-67
2024/04/15 05:03:42;;;;;;;12.55;1.80;;;8.70;99.90;;;;;;5381163;26;20004;-68
2024/04/15 05:06:10;;;;;;;8.85;1.30;;;8.70;99.90;;;;;;5396239;26;20469;-67
2024/04/15 05:08:37;;;;;;;10.55;1.30;;;8.80;99.90;;;;;;5401302;26;20069;-69
2024/04/15 05:11:04;;;;;;;13.35;1.48;;;8.80;99.90;;;;;;5400477;26;20462;-71
2024/04/15 05:13:32;;;;;;;5.22;1.20;;;8.90;99.90;;;;;;5409962;26;20072;-68
2024/04/15 05:16:06;;;;;;;8.88;1.55;;;8.90;99.90;;;;;;5400743;26;20050;-69
2024/04/15 05:18:34;;;;;;;6.75;1.50;;;8.90;99.90;;;;;;5407588;26;20000;-68
2024/04/15 05:21:01;;;;;;;5.70;1.63;;;9.00;99.90;;;;;;5405795;26;20011;-68
2024/04/15 05:23:28;;;;;;;13.55;1.65;;;9.00;99.90;;;;;;5381444;26;19996;-68
2024/04/15 05:25:56;;;;;;;9.60;1.45;;;9.00;99.90;;;;;;5397245;26;20004;-68
2024/04/15 05:28:23;;;;;;;10.07;1.42;;;9.10;99.90;;;;;;5380196;26;20012;-68
2024/04/15 05:30:52;;;;;;;7.50;1.92;;;9.00;99.90;;;;;;5410453;26;20392;-69
2024/04/15 05:33:19;;;;;;;9.88;4.25;;;9.10;99.90;;;;;;5391065;26;20004;-70
2024/04/15 05:35:46;;;;;;;8.00;1.40;;;9.20;99.90;;;;;;5362078;26;20003;-69
2024/04/15 05:38:13;;;;;;;12.00;1.50;;;9.20;99.90;;;;;;5393529;26;20000;-69
2024/04/15 05:40:40;;;;;;;12.35;1.65;;;9.30;99.90;;;;;;5387861;26;20016;-68
2024/04/15 05:43:10;;;;;;;6.07;1.17;;;9.30;99.90;;;;;;5398120;26;19999;-69
2024/04/15 05:45:37;;;;;;;9.95;1.70;;;9.30;99.90;;;;;;5370765;26;20050;-69
2024/04/15 05:48:05;;;;;;;17.77;1.73;;;9.40;99.90;;;;;;5394952;26;20008;-68
2024/04/15 05:50:32;;;;;;;7.65;1.85;;;9.40;99.90;;;;;;5391768;26;20004;-69
2024/04/15 05:52:59;;;;;;;6.65;1.58;;;9.50;99.90;;;;;;5394331;26;20016;-69
2024/04/15 05:55:26;;;;;;;11.98;1.67;;;9.50;99.90;;;;;;5402440;26;20089;-69
2024/04/15 05:57:53;;;;;;;7.57;1.60;;;9.50;99.90;;;;;;5386845;26;20352;-69
2024/04/15 06:00:21;;;;;;;9.60;1.23;;;9.50;99.90;;;;;;5384833;26;20417;-69
2024/04/15 06:02:48;;;;;;;5.35;1.20;;;9.50;99.90;;;;;;5394859;26;20008;-69
2024/04/15 06:05:15;;;;;;;12.55;1.55;;;9.60;99.90;;;;;;5387477;26;21579;-70
2024/04/15 06:07:42;;;;;;;14.88;1.27;;;9.70;99.90;;;;;;5399365;26;20413;-68
2024/04/15 06:10:11;;;;;;;10.98;1.38;;;9.70;99.90;;;;;;5396496;26;20012;-68
2024/04/15 06:12:40;;;;;;;12.90;4.35;;;9.70;99.90;;;;;;5395281;26;20010;-68
2024/04/15 06:15:07;;;;;;;7.32;2.58;;;9.80;99.90;;;;;;5396187;26;20637;-68
2024/04/15 06:17:34;;;;;;;7.03;1.00;;;9.60;99.90;;;;;;5398196;26;20023;-67
2024/04/15 06:20:01;;;;;;;6.55;1.20;;;9.90;99.90;;;;;;5391803;26;20033;-68
2024/04/15 06:22:28;;;;;;;7.68;1.00;;;10.00;99.90;;;;;;5396168;26;20031;-68
2024/04/15 06:24:55;;;;;;;5.00;1.15;;;10.00;99.90;;;;;;5407907;26;20008;-69
2024/04/15 06:27:22;;;;;;;9.13;1.83;;;10.10;99.90;;;;;;5397707;26;20011;-68
2024/04/15 06:29:49;;;;;;;5.93;1.00;;;10.20;99.90;;;;;;5403059;26;20003;-69
2024/04/15 06:32:16;;;;;;;7.82;1.17;;;10.20;99.90;;;;;;5400830;26;20015;-68
2024/04/15 06:34:43;;;;;;;5.53;1.30;;;10.30;99.90;;;;;;5386500;26;20019;-69
2024/04/15 06:37:10;;;;;;;3.22;1.35;;;10.30;99.90;;;;;;5383167;26;20000;-69
2024/04/15 06:39:37;;;;;;;8.77;1.25;;;10.40;99.90;;;;;;5409212;26;20020;-68
2024/04/15 06:42:04;;;;;;;4.35;0.90;;;10.30;99.90;;;;;;5404962;26;20115;-68
2024/04/15 06:44:33;;;;;;;13.15;1.98;;;10.30;99.90;;;;;;5408235;26;20424;-68
2024/04/15 06:47:00;;;;;;;8.77;1.05;;;10.30;99.90;;;;;;5405121;26;20012;-69
2024/04/15 06:49:27;;;;;;;5.65;1.05;;;10.30;99.90;;;;;;5398335;26;20030;-70
2024/04/15 06:51:54;;;;;;;7.38;1.08;;;10.30;99.90;;;;;;5377848;26;20052;-68
2024/04/15 06:54:21;;;;;;;7.43;1.45;;;10.40;99.90;;;;;;5395434;26;20030;-68
2024/04/15 06:56:48;;;;;;;10.80;1.83;;;10.40;99.90;;;;;;5377403;26;19996;-68
2024/04/15 06:59:15;;;;;;;9.13;1.33;;;10.40;99.90;;;;;;5389786;26;20336;-68
2024/04/15 07:01:42;;;;;;;5.57;0.95;;;10.40;99.90;;;;;;5404776;26;20014;-68
2024/04/15 07:04:12;;;;;;;9.25;1.30;;;10.50;99.90;;;;;;5383827;26;20012;-67
2024/04/15 07:06:40;;;;;;;9.07;1.65;;;10.60;99.90;;;;;;5388938;26;20088;-69
2024/04/15 07:09:09;;;;;;;10.15;1.27;;;10.70;99.90;;;;;;5391376;26;20032;-68
2024/04/15 07:11:36;;;;;;;10.35;1.75;;;10.80;99.90;;;;;;5402024;26;20079;-68
2024/04/15 07:14:04;;;;;;;11.38;1.55;;;10.80;99.90;;;;;;5384639;26;20004;-69
2024/04/15 07:16:30;;;;;;;6.07;1.40;;;10.80;99.90;;;;;;5399112;26;20547;-68
2024/04/15 07:18:58;;;;;;;11.50;2.80;;;10.80;99.90;;;;;;5399623;26;20015;-69
2024/04/15 07:21:25;;;;;;;11.25;2.03;;;10.80;99.90;;;;;;5400493;26;20032;-68
2024/04/15 07:23:52;;;;;;;10.75;2.03;;;10.90;99.90;;;;;;5402549;26;20079;-68
2024/04/15 07:26:18;;;;;;;16.25;2.55;;;11.00;99.90;;;;;;5404341;26;19999;-67
2024/04/15 07:28:45;;;;;;;8.82;1.92;;;11.10;99.90;;;;;;5402668;26;20557;-68
2024/04/15 07:31:12;;;;;;;13.68;2.17;;;11.10;99.90;;;;;;5400215;26;19999;-68
2024/04/15 07:33:39;;;;;;;13.23;2.33;;;11.20;99.90;;;;;;5402111;26;20003;-68
2024/04/15 07:36:06;;;;;;;13.75;2.05;;;11.20;99.90;;;;;;5401777;26;20011;-68
2024/04/15 07:38:33;;;;;;;12.02;1.80;;;11.30;99.90;;;;;;5409026;26;20014;-69
2024/04/15 07:41:00;;;;;;;10.50;1.88;;;11.30;99.90;;;;;;5399026;26;20001;-68
2024/04/15 07:43:29;;;;;;;11.60;1.30;;;11.40;99.90;;;;;;5405523;26;20012;-69
2024/04/15 07:45:56;;;;;;;7.45;1.52;;;11.30;99.90;;;;;;5399111;26;20077;-68
2024/04/15 07:48:23;;;;;;;6.85;1.67;;;11.40;99.90;;;;;;5403879;26;20053;-69
2024/04/15 07:50:50;;;;;;;8.07;1.40;;;11.50;99.90;;;;;;5388599;26;20075;-69
2024/04/15 07:53:17;;;;;;;14.82;2.05;;;11.60;99.90;;;;;;5407644;26;20004;-69
2024/04/15 07:55:47;;;;;;;10.15;2.40;;;11.60;99.90;;;;;;5393603;26;20076;-69
2024/04/15 07:58:14;;;;;;;11.88;1.80;;;11.70;99.90;;;;;;5406850;26;19996;-69
2024/04/15 08:00:43;;;;;;;14.90;1.73;;;11.80;99.90;;;;;;5399474;26;20385;-70
2024/04/15 08:03:11;;;;;;;12.20;1.75;;;11.80;99.90;;;;;;5405938;26;20026;-69
2024/04/15 08:05:38;;;;;;;9.65;1.45;;;11.90;99.90;;;;;;5398724;26;20011;-69
2024/04/15 08:08:06;;;;;;;8.25;1.63;;;12.00;99.90;;;;;;5384974;26;20500;-69
2024/04/15 08:10:33;;;;;;;10.40;2.00;;;11.90;99.90;;;;;;5384458;26;20090;-69
2024/04/15 08:13:00;;;;;;;7.28;1.60;;;11.90;99.90;;;;;;5403446;26;20037;-69
2024/04/15 08:15:27;;;;;;;5.85;1.23;;;11.80;99.90;;;;;;5403137;26;20048;-69
2024/04/15 08:17:54;;;;;;;7.80;1.17;;;11.90;99.90;;;;;;5390580;26;20016;-69
2024/04/15 08:20:22;;;;;;;10.85;1.65;;;12.00;99.90;;;;;;5402642;26;20032;-67
2024/04/15 08:22:49;;;;;;;10.27;1.67;;;12.00;99.90;;;;;;5400030;26;20017;-69
2024/04/15 08:25:17;;;;;;;5.75;1.58;;;11.80;99.90;;;;;;5381228;26;20507;-68
2024/04/15 08:27:44;;;;;;;7.57;1.27;;;11.80;99.90;;;;;;5390409;26;20004;-68
2024/04/15 08:30:11;;;;;;;15.57;2.03;;;11.80;99.90;;;;;;5378433;26;20001;-68
2024/04/15 08:32:38;;;;;;;8.02;1.33;;;11.70;99.90;;;;;;5400299;26;20007;-68
2024/04/15 08:35:06;;;;;;;7.05;1.80;;;11.60;99.90;;;;;;5410941;26;20007;-69
2024/04/15 08:37:33;;;;;;;12.65;2.53;;;11.50;99.90;;;;;;5402541;26;20015;-69
2024/04/15 08:39:59;;;;;;;8.20;1.05;;;11.30;99.90;;;;;;5398906;26;20000;-69
2024/04/15 08:42:48;;;;;;;15.15;1.85;;;11.20;99.90;;;;;;5387270;26;20000;-69
2024/04/15 08:45:19;;;;;;;9.82;2.30;;;11.10;99.90;;;;;;5378339;26;20039;-68
2024/04/15 08:47:53;;;;;;;10.13;1.58;;;11.00;99.90;;;;;;5388325;26;20066;-68
2024/04/15 08:50:20;;;;;;;;;;;11.00;99.90;;;;;;5399678;26;20003;-68
2024/04/15 08:52:52;;;;;;;8.27;1.42;;;10.80;99.90;;;;;;5409436;26;19925;-69
2024/04/15 08:55:20;;;;;;;6.90;1.38;;;10.70;99.90;;;;;;5403256;26;20061;-68
2024/04/15 08:57:47;;;;;;;6.03;1.30;;;10.50;99.90;;;;;;5384040;26;20004;-68
2024/04/15 09:00:18;;;;;;;12.23;2.08;;;10.30;99.90;;;;;;5375088;26;20035;-70
2024/04/15 09:02:45;;;;;;;9.55;1.73;;;10.00;99.90;;;;;;5395561;26;20004;-69
2024/04/15 09:05:13;;;;;;;17.70;2.08;;;9.80;99.90;;;;;;5406839;26;20235;-70
2024/04/15 09:07:40;;;;;;;9.63;1.25;;;9.60;99.90;;;;;;5401754;26;20008;-69
2024/04/15 09:10:07;;;;;;;8.00;1.05;;;9.40;99.90;;;;;;5405226;26;20003;-69
2024/04/15 09:12:38;;;;;;;6.03;1.70;;;8.90;99.90;;;;;;5397316;26;20033;-67
2024/04/15 09:15:05;;;;;;;2.88;0.50;;;8.40;99.90;;;;;;5408153;26;20004;-68
2024/04/15 09:17:32;;;;;;;1.13;0.63;;;7.80;99.90;;;;;;5398355;26;20003;-67
2024/04/15 09:19:59;;;;;;;3.72;0.60;;;7.50;99.90;;;;;;5388660;26;20043;-67
2024/04/15 09:22:33;;;;;;;1.75;0.50;;;7.40;99.90;;;;;;5401700;26;20012;-69
2024/04/15 09:25:01;;;;;;;2.58;0.80;;;7.30;99.90;;;;;;5389579;26;20011;-69
2024/04/15 09:27:28;;;;;;;5.13;0.93;;;7.40;99.90;;;;;;5396582;26;20020;-69
2024/04/15 09:30:01;;;;;;;1.25;0.57;;;7.40;99.90;;;;;;5398723;26;19996;-69
2024/04/15 09:32:28;;;;;;;3.25;0.63;;;7.40;99.90;;;;;;5392559;26;20103;-69
2024/04/15 09:35:05;;;;;;;9.45;0.93;;;7.40;99.90;;;;;;5403102;26;20018;-68
2024/04/15 09:37:34;;;;;;;4.80;0.80;;;7.60;99.90;;;;;;5386741;26;20334;-68
2024/04/15 09:40:05;;;;;;;6.18;0.82;;;7.70;99.90;;;;;;5391617;26;20028;-69
2024/04/15 09:42:32;;;;;;;1.50;0.70;;;7.80;99.90;;;;;;5403014;26;20470;-69
2024/04/15 09:44:59;;;;;;;3.13;0.90;;;7.80;99.90;;;;;;5392339;26;20004;-69
2024/04/15 09:47:26;;;;;;;2.55;0.75;;;7.80;99.90;;;;;;5384805;26;20072;-69
2024/04/15 09:49:52;;;;;;;5.50;1.25;;;7.80;99.90;;;;;;5376523;26;20331;-69
2024/04/15 09:52:29;;;;;;;6.28;1.20;;;7.90;99.90;;;;;;5382493;26;20042;-69
2024/04/15 09:55:07;;;;;;;6.72;0.82;;;8.00;99.90;;;;;;5400167;26;20012;-69
2024/04/15 09:57:39;;;;;;;4.45;1.38;;;7.90;99.90;;;;;;5381628;26;20004;-69
2024/04/15 10:00:13;;;;;;;1.67;0.60;;;8.00;99.90;;;;;;5390117;26;20019;-71
2024/04/15 10:02:54;;;;;;;;;;;8.00;99.90;;;;;;5381387;26;20537;-68
2024/04/15 10:05:25;;;;;;;2.50;0.55;;;8.00;99.90;;;;;;5385262;26;19953;-69
2024/04/15 10:07:59;;;;;;;2.40;0.80;;;8.00;99.90;;;;;;5401818;26;20427;-69
2024/04/15 10:10:26;;;;;;;7.60;0.82;;;8.20;99.90;;;;;;5398127;26;20017;-69
2024/04/15 10:12:55;;;;;;;2.25;0.98;;;8.40;99.90;;;;;;5404221;26;20037;-69
2024/04/15 10:15:22;;;;;;;3.58;0.70;;;8.60;99.90;;;;;;5402308;26;20011;-69
2024/04/15 10:18:02;;;;;;;4.50;0.80;;;8.80;99.90;;;;;;5378828;26;20012;-69
2024/04/15 10:20:36;;;;;;;3.65;0.55;;;8.90;99.90;;;;;;5389771;26;20000;-69
2024/04/15 10:23:07;;;;;;;5.13;0.90;;;8.80;99.90;;;;;;5384691;26;20011;-69
2024/04/15 10:25:34;;;;;;;3.90;0.52;;;9.00;99.90;;;;;;5388743;26;20046;-69
2024/04/15 10:28:01;;;;;;;4.22;0.80;;;9.00;99.90;;;;;;5378447;26;20004;-69
2024/04/15 10:30:30;;;;;;;3.92;1.00;;;9.10;99.90;;;;;;5397265;26;20023;-68
2024/04/15 10:32:59;;;;;;;2.00;0.95;;;9.20;99.90;;;;;;5379172;26;20007;-70
2024/04/15 10:35:26;;;;;;;5.35;1.02;;;9.40;99.90;;;;;;5398326;26;20015;-70
2024/04/15 10:37:53;;;;;;;5.47;1.33;;;9.40;99.90;;;;;;5400444;26;20019;-70
2024/04/15 10:40:26;;;;;;;2.72;0.88;;;9.50;99.90;;;;;;5398522;26;20027;-70
2024/04/15 10:42:57;;;;;;;8.30;1.30;;;9.60;99.90;;;;;;5386654;26;20012;-71
2024/04/15 10:45:26;;;;;;;4.63;1.05;;;9.70;99.90;;;;;;5386644;26;20471;-69
2024/04/15 10:47:53;;;;;;;6.95;1.30;;;9.80;99.90;;;;;;5392564;26;20015;-70
2024/04/15 10:50:20;;;;;;;7.10;0.70;;;9.90;99.90;;;;;;5390475;26;19999;-71
2024/04/15 10:52:50;;;;;;;5.18;0.88;;;10.00;99.90;;;;;;5393530;26;20023;-70
2024/04/15 10:55:17;;;;;;;4.50;1.10;;;10.40;99.90;;;;;;5396563;26;20047;-70
2024/04/15 10:57:45;;;;;;;9.82;1.23;;;10.50;99.90;;;;;;5391079;26;20062;-70
2024/04/15 11:00:13;;;;;;;7.10;1.63;;;10.50;99.90;;;;;;5378620;26;20066;-71
2024/04/15 11:02:50;;;;;;;10.35;1.00;;;10.50;99.90;;;;;;5390565;26;20031;-70
2024/04/15 11:05:18;;;;;;;5.38;1.15;;;10.70;99.90;;;;;;5401293;26;20001;-69
2024/04/15 11:07:47;;;;;;;7.90;0.75;;;10.90;99.90;;;;;;5376912;26;20290;-70
2024/04/15 11:10:14;;;;;;;5.50;2.55;;;11.10;99.90;;;;;;5373403;26;20028;-71
2024/04/15 11:12:41;;;;;;;5.35;0.95;;;11.10;99.90;;;;;;5385129;26;20004;-71
2024/04/15 11:15:12;;;;;;;1.13;0.40;;;11.10;99.90;;;;;;5408013;26;20000;-72
2024/04/15 11:17:48;;;;;;;1.17;0.60;;;11.30;99.90;;;;;;5384042;26;20007;-70
2024/04/15 11:20:15;;;;;;;9.75;1.20;;;11.30;99.90;;;;;;5374665;26;20475;-69
2024/04/15 11:22:42;;;;;;;6.32;0.93;;;11.40;99.50;;;;;;5398801;26;20014;-68
2024/04/15 11:25:10;;;;;;;3.40;0.80;;;11.40;99.00;;;;;;5377105;26;19996;-68
2024/04/15 11:27:39;;;;;;;1.85;0.70;;;11.50;99.40;;;;;;5380731;26;20327;-70
2024/04/15 11:30:07;;;;;;;3.60;0.80;;;11.60;99.90;;;;;;5374476;26;20022;-71
2024/04/15 11:32:34;;;;;;;2.72;0.60;;;11.40;99.40;;;;;;5394975;26;20373;-70
2024/04/15 11:35:03;;;;;;;6.32;0.68;;;11.30;98.50;;;;;;5398089;26;20040;-69
2024/04/15 11:37:31;;;;;;;2.60;1.00;;;11.30;98.00;;;;;;5391824;26;20043;-70
2024/04/15 11:39:58;;;;;;;1.67;0.70;;;11.30;98.60;;;;;;5393592;26;19999;-69
2024/04/15 11:42:26;;;;;;;4.40;1.20;;;11.20;98.60;;;;;;5388298;26;20056;-69
2024/04/15 11:44:53;;;;;;;4.97;0.60;;;11.20;98.80;;;;;;5377148;26;20009;-71
2024/04/15 11:47:20;;;;;;;3.90;0.80;;;11.10;98.00;;;;;;5389117;26;20004;-68
2024/04/15 11:49:47;;;;;;;4.43;0.77;;;11.10;96.90;;;;;;5377637;26;20004;-69
2024/04/15 11:52:14;;;;;;;6.30;1.05;;;11.30;98.00;;;;;;5378363;26;20471;-70
2024/04/15 11:54:45;;;;;;;4.18;0.88;;;11.30;97.40;;;;;;5393326;26;20019;-69
2024/04/15 11:57:12;;;;;;;6.78;0.85;;;11.40;97.30;;;;;;5383736;26;20059;-70
2024/04/15 11:59:39;;;;;;;6.53;1.30;;;11.60;96.80;;;;;;5392768;26;20003;-68
2024/04/15 12:02:07;;;;;;;1.80;0.70;;;11.70;96.60;;;;;;5408176;26;20000;-68
2024/04/15 12:04:34;;;;;;;1.85;0.75;;;11.60;95.70;;;;;;5403737;26;20018;-68
2024/04/15 12:07:01;;;;;;;9.60;1.45;;;11.60;95.30;;;;;;5408271;26;20013;-69
2024/04/15 12:09:29;;;;;;;3.60;1.27;;;11.80;96.10;;;;;;5385116;26;20015;-68
2024/04/15 12:11:56;;;;;;;1.52;0.55;;;11.60;95.70;;;;;;5408039;26;19999;-71
2024/04/15 12:14:23;;;;;;;4.97;1.30;;;11.30;95.90;;;;;;5394883;26;20081;-69
2024/04/15 12:16:50;;;;;;;2.58;0.90;;;11.50;97.40;;;;;;5399858;26;19996;-70
2024/04/15 12:19:17;;;;;;;5.50;1.05;;;11.60;96.80;;;;;;5396909;26;20015;-68
2024/04/15 12:21:44;;;;;;;5.20;1.75;;;11.90;95.80;;;;;;5406502;26;20008;-70
2024/04/15 12:24:11;;;;;;;8.30;1.90;;;12.00;95.50;;;;;;5402682;26;20336;-70
2024/04/15 12:26:37;;;;;;;4.38;1.08;;;12.00;95.00;;;;;;5386337;26;20022;-70
2024/04/15 12:29:04;;;;;;;2.22;0.98;;;12.00;94.20;;;;;;5387660;26;20004;-69
2024/04/15 12:31:31;;;;;;;2.80;1.20;;;12.10;94.60;;;;;;5405451;26;20079;-70
2024/04/15 12:33:58;;;;;;;4.38;0.90;;;11.90;94.20;;;;;;5411284;26;20253;-70
2024/04/15 12:36:25;;;;;;;6.25;1.25;;;11.60;94.10;;;;;;5409319;26;20040;-69
2024/04/15 12:38:53;;;;;;;5.88;1.48;;;11.70;94.30;;;;;;5406410;26;20022;-69
2024/04/15 12:41:20;;;;;;;7.70;1.15;;;11.70;94.30;;;;;;5407331;26;20015;-70
2024/04/15 12:43:48;;;;;;;5.82;0.90;;;11.80;94.00;;;;;;5409540;26;20003;-69
2024/04/15 12:46:15;;;;;;;7.72;1.40;;;12.10;93.80;;;;;;5398541;26;20001;-69
2024/04/15 12:48:42;;;;;;;8.35;1.33;;;12.30;94.30;;;;;;5401388;26;20010;-69
2024/04/15 12:51:09;;;;;;;10.55;2.58;;;12.10;92.90;;;;;;5402785;26;20016;-69
2024/04/15 12:53:36;;;;;;;10.02;1.73;;;11.90;93.70;;;;;;5408988;26;20540;-69